VLG631 EGLL-LEBB
Flight info
| Callsign | VLG631 |
|---|---|
| Flight time | 1h 29m |
| Altitude | 31000 |
| Route | GASGU N866 SAM M195 MARUK N621 LELNA DCT DOMOK UT260 UPALO/N0443F330 UN862 TERPO DCT PEXOD DCT NENEM N867 MAPAX |
| Aircraft | A320/M-SDE3FGHIRWY/LB1 |
Departure
| Time | 2026-05-06 16:15 |
|---|---|
| Airport | London Heathrow Airport (EGLL) |
Arrival
| Time | 2026-05-06 17:45 |
|---|---|
| Airport | Bilbao Airport (LEBB) |
| Time | Latitude | Longitude | Altitude | Speed | Heading |
|---|---|---|---|---|---|
| 2026-05-06 15:53 | 51.46260 | -0.44393 | 89 ft | 0 kts | 289° |
| 2026-05-06 16:05 | 51.46255 | -0.44370 | 89 ft | 2 kts | 289° |
| 2026-05-06 16:05 | 51.46249 | -0.44344 | 89 ft | 2 kts | 289° |
| 2026-05-06 16:05 | 51.46243 | -0.44319 | 88 ft | 2 kts | 289° |
| 2026-05-06 16:06 | 51.46238 | -0.44293 | 88 ft | 2 kts | 303° |
| 2026-05-06 16:06 | 51.46226 | -0.44277 | 90 ft | 2 kts | 11° |
| 2026-05-06 16:06 | 51.46225 | -0.44277 | 89 ft | 0 kts | 18° |
| 2026-05-06 16:07 | 51.46239 | -0.44266 | 88 ft | 6 kts | 24° |
| 2026-05-06 16:07 | 51.46292 | -0.44244 | 86 ft | 9 kts | 4° |
| 2026-05-06 16:08 | 51.46316 | -0.44251 | 86 ft | 1 kts | 336° |
| 2026-05-06 16:08 | 51.46330 | -0.44329 | 90 ft | 11 kts | 270° |
| 2026-05-06 16:08 | 51.46328 | -0.44458 | 89 ft | 13 kts | 269° |
| 2026-05-06 16:08 | 51.46325 | -0.44609 | 87 ft | 15 kts | 264° |
| 2026-05-06 16:09 | 51.46318 | -0.44783 | 89 ft | 17 kts | 269° |
| 2026-05-06 16:09 | 51.46318 | -0.44982 | 88 ft | 19 kts | 270° |
| 2026-05-06 16:09 | 51.46318 | -0.45204 | 88 ft | 21 kts | 270° |
| 2026-05-06 16:09 | 51.46318 | -0.45445 | 89 ft | 21 kts | 268° |
| 2026-05-06 16:10 | 51.46323 | -0.45694 | 86 ft | 23 kts | 272° |
| 2026-05-06 16:10 | 51.46325 | -0.45964 | 86 ft | 25 kts | 269° |
| 2026-05-06 16:10 | 51.46323 | -0.46255 | 86 ft | 27 kts | 269° |
| 2026-05-06 16:10 | 51.46322 | -0.46566 | 87 ft | 29 kts | 269° |
| 2026-05-06 16:11 | 51.46323 | -0.46854 | 86 ft | 12 kts | 270° |
| 2026-05-06 16:11 | 51.46323 | -0.46901 | 86 ft | 1 kts | 270° |
| 2026-05-06 16:11 | 51.46323 | -0.46953 | 86 ft | 10 kts | 270° |
| 2026-05-06 16:11 | 51.46322 | -0.47095 | 86 ft | 15 kts | 269° |
| 2026-05-06 16:12 | 51.46321 | -0.47264 | 86 ft | 12 kts | 270° |
| 2026-05-06 16:12 | 51.46323 | -0.47336 | 86 ft | 0 kts | 278° |
| 2026-05-06 16:14 | 51.46325 | -0.47347 | 86 ft | 5 kts | 283° |
| 2026-05-06 16:14 | 51.46340 | -0.47424 | 87 ft | 9 kts | 290° |
| 2026-05-06 16:14 | 51.46401 | -0.47497 | 85 ft | 15 kts | 354° |
| 2026-05-06 16:14 | 51.46481 | -0.47431 | 83 ft | 14 kts | 76° |
| 2026-05-06 16:15 | 51.46483 | -0.47135 | 85 ft | 55 kts | 89° |
| 2026-05-06 16:15 | 51.46487 | -0.46093 | 85 ft | 130 kts | 90° |
| 2026-05-06 16:15 | 51.46493 | -0.44347 | 169 ft | 178 kts | 90° |
| 2026-05-06 16:15 | 51.46438 | -0.42471 | 1278 ft | 161 kts | 96° |
| 2026-05-06 16:16 | 51.46086 | -0.40770 | 2252 ft | 163 kts | 113° |
| 2026-05-06 16:16 | 51.45396 | -0.39326 | 3181 ft | 164 kts | 133° |
| 2026-05-06 16:16 | 51.44649 | -0.37926 | 3942 ft | 170 kts | 120° |
| 2026-05-06 16:16 | 51.43983 | -0.36214 | 4498 ft | 192 kts | 117° |
| 2026-05-06 16:17 | 51.43167 | -0.34367 | 4946 ft | 215 kts | 133° |
| 2026-05-06 16:17 | 51.41849 | -0.32969 | 5178 ft | 241 kts | 160° |
| 2026-05-06 16:17 | 51.40133 | -0.32572 | 5527 ft | 265 kts | 186° |
| 2026-05-06 16:17 | 51.38348 | -0.33523 | 6115 ft | 276 kts | 215° |
| 2026-05-06 16:18 | 51.36872 | -0.35502 | 6897 ft | 278 kts | 224° |
| 2026-05-06 16:18 | 51.35434 | -0.37599 | 7708 ft | 281 kts | 224° |
| 2026-05-06 16:18 | 51.34004 | -0.39677 | 8534 ft | 283 kts | 224° |
| 2026-05-06 16:18 | 51.32534 | -0.41811 | 9318 ft | 287 kts | 224° |
| 2026-05-06 16:19 | 51.31122 | -0.44086 | 10049 ft | 290 kts | 236° |
| 2026-05-06 16:19 | 51.30134 | -0.46884 | 10769 ft | 289 kts | 252° |
| 2026-05-06 16:19 | 51.29563 | -0.49965 | 11519 ft | 290 kts | 256° |
| 2026-05-06 16:19 | 51.29012 | -0.53075 | 12239 ft | 292 kts | 256° |
| 2026-05-06 16:20 | 51.28447 | -0.56211 | 12968 ft | 295 kts | 256° |
| 2026-05-06 16:20 | 51.27863 | -0.59366 | 13691 ft | 297 kts | 255° |
| 2026-05-06 16:20 | 51.27250 | -0.62543 | 14362 ft | 299 kts | 255° |
| 2026-05-06 16:20 | 51.26623 | -0.65734 | 14976 ft | 302 kts | 254° |
| 2026-05-06 16:21 | 51.26003 | -0.68864 | 15578 ft | 305 kts | 253° |
| 2026-05-06 16:21 | 51.25344 | -0.72200 | 16227 ft | 308 kts | 254° |
| 2026-05-06 16:21 | 51.24707 | -0.75436 | 16851 ft | 310 kts | 254° |
| 2026-05-06 16:21 | 51.24052 | -0.78768 | 17493 ft | 313 kts | 254° |
| 2026-05-06 16:22 | 51.23400 | -0.82092 | 18107 ft | 315 kts | 253° |
| 2026-05-06 16:22 | 51.22742 | -0.85438 | 18654 ft | 318 kts | 253° |
| 2026-05-06 16:22 | 51.22073 | -0.88834 | 19155 ft | 321 kts | 253° |
| 2026-05-06 16:22 | 51.21401 | -0.92236 | 19718 ft | 323 kts | 253° |
| 2026-05-06 16:23 | 51.20575 | -0.95537 | 20241 ft | 326 kts | 241° |
| 2026-05-06 16:23 | 51.19156 | -0.98420 | 20486 ft | 340 kts | 226° |
| 2026-05-06 16:23 | 51.17430 | -1.01087 | 20623 ft | 354 kts | 225° |
| 2026-05-06 16:23 | 51.15616 | -1.03856 | 20753 ft | 368 kts | 225° |
| 2026-05-06 16:24 | 51.13734 | -1.06720 | 20884 ft | 380 kts | 225° |
| 2026-05-06 16:24 | 51.11793 | -1.09678 | 21119 ft | 389 kts | 225° |
| 2026-05-06 16:24 | 51.09830 | -1.12678 | 21529 ft | 393 kts | 225° |
| 2026-05-06 16:24 | 51.07848 | -1.15715 | 21983 ft | 396 kts | 225° |
| 2026-05-06 16:25 | 51.05864 | -1.18754 | 22436 ft | 398 kts | 225° |
| 2026-05-06 16:25 | 51.03861 | -1.21816 | 22869 ft | 401 kts | 225° |
| 2026-05-06 16:25 | 51.01844 | -1.24894 | 23330 ft | 403 kts | 225° |
| 2026-05-06 16:25 | 50.99837 | -1.27953 | 23733 ft | 405 kts | 225° |
| 2026-05-06 16:26 | 50.97771 | -1.31097 | 24107 ft | 408 kts | 225° |
| 2026-05-06 16:26 | 50.95677 | -1.34169 | 24460 ft | 411 kts | 220° |
| 2026-05-06 16:26 | 50.93367 | -1.36769 | 24812 ft | 414 kts | 215° |
| 2026-05-06 16:26 | 50.90953 | -1.39278 | 25164 ft | 416 kts | 214° |
| 2026-05-06 16:27 | 50.88526 | -1.41804 | 25516 ft | 418 kts | 215° |
| 2026-05-06 16:27 | 50.86092 | -1.44336 | 25853 ft | 420 kts | 214° |
| 2026-05-06 16:27 | 50.83635 | -1.46890 | 26179 ft | 423 kts | 214° |
| 2026-05-06 16:27 | 50.81173 | -1.49445 | 26516 ft | 425 kts | 214° |
| 2026-05-06 16:28 | 50.78685 | -1.52022 | 26863 ft | 427 kts | 214° |
| 2026-05-06 16:28 | 50.76175 | -1.54621 | 27229 ft | 430 kts | 214° |
| 2026-05-06 16:28 | 50.73708 | -1.57169 | 27564 ft | 432 kts | 214° |
| 2026-05-06 16:28 | 50.71184 | -1.59770 | 27918 ft | 434 kts | 214° |
| 2026-05-06 16:29 | 50.68652 | -1.62379 | 28252 ft | 436 kts | 214° |
| 2026-05-06 16:29 | 50.66095 | -1.65011 | 28585 ft | 438 kts | 214° |
| 2026-05-06 16:29 | 50.63544 | -1.67636 | 29032 ft | 437 kts | 214° |
| 2026-05-06 16:29 | 50.61003 | -1.70249 | 29467 ft | 437 kts | 214° |
| 2026-05-06 16:30 | 50.58461 | -1.72855 | 29905 ft | 437 kts | 214° |
| 2026-05-06 16:30 | 50.56772 | -1.74585 | 30187 ft | 436 kts | 214° |
| 2026-05-06 16:30 | 50.53368 | -1.78069 | 30719 ft | 435 kts | 214° |
| 2026-05-06 16:30 | 50.50836 | -1.80659 | 31128 ft | 434 kts | 214° |
| 2026-05-06 16:31 | 50.48313 | -1.83234 | 31551 ft | 433 kts | 214° |
| 2026-05-06 16:31 | 50.45790 | -1.85803 | 31967 ft | 432 kts | 214° |
| 2026-05-06 16:31 | 50.43271 | -1.88366 | 32407 ft | 430 kts | 214° |
| 2026-05-06 16:31 | 50.40756 | -1.90918 | 32828 ft | 430 kts | 214° |
| 2026-05-06 16:32 | 50.38241 | -1.93466 | 32977 ft | 432 kts | 214° |
| 2026-05-06 16:32 | 50.35730 | -1.96010 | 32995 ft | 437 kts | 214° |
| 2026-05-06 16:32 | 50.30599 | -2.01200 | 32995 ft | 440 kts | 214° |
| 2026-05-06 16:33 | 50.25257 | -2.05883 | 32997 ft | 442 kts | 202° |
| 2026-05-06 16:34 | 50.16145 | -2.08314 | 32995 ft | 447 kts | 186° |
| 2026-05-06 16:34 | 50.09945 | -2.09116 | 32997 ft | 448 kts | 186° |
| 2026-05-06 16:35 | 50.04776 | -2.09801 | 33000 ft | 448 kts | 186° |
| 2026-05-06 16:35 | 49.97500 | -2.10723 | 33008 ft | 448 kts | 185° |
| 2026-05-06 16:36 | 49.92313 | -2.10917 | 33001 ft | 449 kts | 181° |
| 2026-05-06 16:36 | 49.86058 | -2.10715 | 33002 ft | 450 kts | 180° |
| 2026-05-06 16:37 | 49.79796 | -2.10517 | 33004 ft | 450 kts | 180° |
| 2026-05-06 16:37 | 49.73533 | -2.10341 | 33007 ft | 451 kts | 176° |
| 2026-05-06 16:38 | 49.67434 | -2.08312 | 33005 ft | 452 kts | 165° |
| 2026-05-06 16:38 | 49.61354 | -2.05633 | 33006 ft | 452 kts | 165° |
| 2026-05-06 16:39 | 49.55294 | -2.02958 | 33006 ft | 452 kts | 165° |
| 2026-05-06 16:39 | 49.49278 | -2.00321 | 32997 ft | 452 kts | 165° |
| 2026-05-06 16:40 | 49.43224 | -1.97689 | 32996 ft | 452 kts | 165° |
| 2026-05-06 16:40 | 49.37153 | -1.95055 | 32993 ft | 452 kts | 165° |
| 2026-05-06 16:41 | 49.31100 | -1.92424 | 32995 ft | 452 kts | 165° |
| 2026-05-06 16:41 | 49.25044 | -1.89803 | 32994 ft | 453 kts | 165° |
| 2026-05-06 16:42 | 49.18965 | -1.87178 | 32995 ft | 453 kts | 165° |
| 2026-05-06 16:42 | 49.12931 | -1.84568 | 32998 ft | 453 kts | 165° |
| 2026-05-06 16:43 | 49.06851 | -1.81958 | 33005 ft | 454 kts | 165° |
| 2026-05-06 16:43 | 49.00770 | -1.79354 | 32996 ft | 454 kts | 165° |
| 2026-05-06 16:44 | 48.94690 | -1.76767 | 32997 ft | 454 kts | 165° |
| 2026-05-06 16:44 | 48.88470 | -1.75152 | 32995 ft | 452 kts | 180° |
| 2026-05-06 16:45 | 48.82187 | -1.75075 | 32994 ft | 452 kts | 180° |
| 2026-05-06 16:45 | 48.75918 | -1.75004 | 32994 ft | 452 kts | 180° |
| 2026-05-06 16:46 | 48.69622 | -1.74928 | 32992 ft | 453 kts | 180° |
| 2026-05-06 16:46 | 48.63327 | -1.74850 | 32982 ft | 452 kts | 180° |
| 2026-05-06 16:47 | 48.57027 | -1.74768 | 32975 ft | 453 kts | 180° |
| 2026-05-06 16:47 | 48.50705 | -1.74688 | 32973 ft | 453 kts | 180° |
| 2026-05-06 16:48 | 48.44404 | -1.74611 | 32970 ft | 453 kts | 180° |
| 2026-05-06 16:48 | 48.38097 | -1.74536 | 32965 ft | 454 kts | 180° |
| 2026-05-06 16:49 | 48.31812 | -1.74465 | 32967 ft | 454 kts | 180° |
| 2026-05-06 16:49 | 48.25498 | -1.74396 | 32967 ft | 454 kts | 180° |
| 2026-05-06 16:50 | 48.19162 | -1.74319 | 32969 ft | 454 kts | 180° |
| 2026-05-06 16:50 | 48.12836 | -1.74249 | 32975 ft | 454 kts | 180° |
| 2026-05-06 16:51 | 48.06539 | -1.74736 | 32978 ft | 453 kts | 192° |
| 2026-05-06 16:51 | 48.00530 | -1.77464 | 32978 ft | 451 kts | 200° |
| 2026-05-06 16:52 | 47.94613 | -1.80520 | 32980 ft | 451 kts | 200° |
| 2026-05-06 16:52 | 47.88693 | -1.83542 | 32980 ft | 451 kts | 200° |
| 2026-05-06 16:53 | 47.82748 | -1.86570 | 32979 ft | 451 kts | 200° |
| 2026-05-06 16:53 | 47.76807 | -1.89596 | 32979 ft | 451 kts | 200° |
| 2026-05-06 16:54 | 47.70877 | -1.92610 | 32983 ft | 451 kts | 200° |
| 2026-05-06 16:54 | 47.64862 | -1.95234 | 32978 ft | 451 kts | 190° |
| 2026-05-06 16:55 | 47.58672 | -1.95421 | 32975 ft | 453 kts | 176° |
| 2026-05-06 16:55 | 47.52397 | -1.94727 | 32968 ft | 453 kts | 177° |
| 2026-05-06 16:56 | 47.46149 | -1.94074 | 32970 ft | 453 kts | 177° |
| 2026-05-06 16:56 | 47.39859 | -1.93420 | 32972 ft | 453 kts | 177° |
| 2026-05-06 16:57 | 47.33560 | -1.93997 | 32975 ft | 450 kts | 194° |
| 2026-05-06 16:57 | 47.27688 | -1.96915 | 32966 ft | 447 kts | 202° |
| 2026-05-06 16:58 | 47.21863 | -2.00145 | 32964 ft | 448 kts | 202° |
| 2026-05-06 16:58 | 47.16023 | -2.03365 | 32962 ft | 448 kts | 202° |
| 2026-05-06 16:59 | 47.10192 | -2.06595 | 32946 ft | 448 kts | 202° |
| 2026-05-06 16:59 | 47.04395 | -2.09804 | 32950 ft | 448 kts | 202° |
| 2026-05-06 17:00 | 46.98551 | -2.13010 | 32958 ft | 448 kts | 202° |
| 2026-05-06 17:00 | 46.92665 | -2.16231 | 32945 ft | 449 kts | 202° |
| 2026-05-06 17:01 | 46.86849 | -2.19417 | 32950 ft | 450 kts | 202° |
| 2026-05-06 17:01 | 46.80968 | -2.22637 | 32954 ft | 451 kts | 202° |
| 2026-05-06 17:02 | 46.75100 | -2.25837 | 32961 ft | 451 kts | 202° |
| 2026-05-06 17:02 | 46.69203 | -2.29035 | 32968 ft | 452 kts | 202° |
| 2026-05-06 17:03 | 46.63320 | -2.32222 | 32973 ft | 452 kts | 202° |
| 2026-05-06 17:03 | 46.57426 | -2.35411 | 32976 ft | 452 kts | 202° |
| 2026-05-06 17:04 | 46.51531 | -2.38595 | 32980 ft | 452 kts | 202° |
| 2026-05-06 17:04 | 46.45674 | -2.41748 | 32981 ft | 451 kts | 202° |
| 2026-05-06 17:05 | 46.39778 | -2.44933 | 32975 ft | 452 kts | 202° |
| 2026-05-06 17:05 | 46.33875 | -2.48107 | 32981 ft | 453 kts | 202° |
| 2026-05-06 17:06 | 46.27966 | -2.51262 | 33003 ft | 453 kts | 202° |
| 2026-05-06 17:06 | 46.22044 | -2.54411 | 32984 ft | 452 kts | 202° |
| 2026-05-06 17:07 | 46.16135 | -2.57555 | 32989 ft | 452 kts | 202° |
| 2026-05-06 17:07 | 46.10228 | -2.60697 | 33003 ft | 452 kts | 202° |
| 2026-05-06 17:08 | 46.04340 | -2.63818 | 33001 ft | 451 kts | 202° |
| 2026-05-06 17:08 | 45.98443 | -2.66948 | 32992 ft | 451 kts | 202° |
| 2026-05-06 17:09 | 45.92583 | -2.70037 | 32993 ft | 450 kts | 202° |
| 2026-05-06 17:09 | 45.86700 | -2.73130 | 32994 ft | 450 kts | 202° |
| 2026-05-06 17:10 | 45.80816 | -2.76216 | 32971 ft | 450 kts | 201° |
| 2026-05-06 17:10 | 45.74908 | -2.79306 | 32970 ft | 451 kts | 201° |
| 2026-05-06 17:11 | 45.69033 | -2.82388 | 32978 ft | 451 kts | 202° |
| 2026-05-06 17:11 | 45.66126 | -2.83911 | 32712 ft | 450 kts | 202° |
| 2026-05-06 17:11 | 45.63179 | -2.85449 | 32426 ft | 450 kts | 202° |
| 2026-05-06 17:11 | 45.60222 | -2.86989 | 32130 ft | 450 kts | 202° |
| 2026-05-06 17:12 | 45.57280 | -2.88519 | 31840 ft | 450 kts | 202° |
| 2026-05-06 17:12 | 45.54327 | -2.90050 | 31551 ft | 450 kts | 202° |
| 2026-05-06 17:12 | 45.51392 | -2.91570 | 31265 ft | 450 kts | 202° |
| 2026-05-06 17:12 | 45.48444 | -2.93098 | 30985 ft | 449 kts | 202° |
| 2026-05-06 17:13 | 45.45519 | -2.94614 | 30707 ft | 449 kts | 202° |
| 2026-05-06 17:13 | 45.42577 | -2.96135 | 30435 ft | 448 kts | 202° |
| 2026-05-06 17:13 | 45.39648 | -2.97648 | 30163 ft | 445 kts | 202° |
| 2026-05-06 17:13 | 45.36778 | -2.99132 | 29865 ft | 443 kts | 202° |
| 2026-05-06 17:14 | 45.33890 | -3.00611 | 29543 ft | 441 kts | 200° |
| 2026-05-06 17:14 | 45.30874 | -3.01688 | 29226 ft | 442 kts | 191° |
| 2026-05-06 17:14 | 45.27852 | -3.02142 | 28919 ft | 441 kts | 186° |
| 2026-05-06 17:14 | 45.24802 | -3.02461 | 28610 ft | 439 kts | 186° |
| 2026-05-06 17:15 | 45.21761 | -3.02785 | 28303 ft | 437 kts | 186° |
| 2026-05-06 17:15 | 45.18737 | -3.03109 | 27990 ft | 435 kts | 186° |
| 2026-05-06 17:15 | 45.15715 | -3.03433 | 27704 ft | 433 kts | 186° |
| 2026-05-06 17:15 | 45.12711 | -3.03755 | 27405 ft | 432 kts | 186° |
| 2026-05-06 17:16 | 45.09733 | -3.04071 | 27112 ft | 430 kts | 186° |
| 2026-05-06 17:16 | 45.06746 | -3.04388 | 26824 ft | 428 kts | 186° |
| 2026-05-06 17:16 | 45.03781 | -3.04703 | 26539 ft | 426 kts | 186° |
| 2026-05-06 17:16 | 45.00852 | -3.05017 | 26271 ft | 425 kts | 186° |
| 2026-05-06 17:17 | 44.97895 | -3.05333 | 25982 ft | 423 kts | 186° |
| 2026-05-06 17:17 | 44.94971 | -3.05644 | 25685 ft | 420 kts | 186° |
| 2026-05-06 17:17 | 44.92068 | -3.05952 | 25408 ft | 417 kts | 185° |
| 2026-05-06 17:17 | 44.89180 | -3.06260 | 25142 ft | 415 kts | 186° |
| 2026-05-06 17:18 | 44.86307 | -3.06565 | 24876 ft | 414 kts | 186° |
| 2026-05-06 17:18 | 44.83442 | -3.06868 | 24606 ft | 412 kts | 186° |
| 2026-05-06 17:18 | 44.80590 | -3.07168 | 24342 ft | 410 kts | 185° |
| 2026-05-06 17:18 | 44.77739 | -3.07467 | 24081 ft | 409 kts | 185° |
| 2026-05-06 17:19 | 44.74918 | -3.07763 | 23821 ft | 407 kts | 185° |
| 2026-05-06 17:19 | 44.72097 | -3.08058 | 23562 ft | 405 kts | 186° |
| 2026-05-06 17:19 | 44.69296 | -3.08354 | 23255 ft | 404 kts | 186° |
| 2026-05-06 17:19 | 44.66490 | -3.08653 | 22950 ft | 402 kts | 185° |
| 2026-05-06 17:20 | 44.63737 | -3.08944 | 22654 ft | 401 kts | 185° |
| 2026-05-06 17:20 | 44.60933 | -3.09240 | 22350 ft | 399 kts | 186° |
| 2026-05-06 17:20 | 44.58167 | -3.09532 | 22050 ft | 398 kts | 186° |
| 2026-05-06 17:20 | 44.55407 | -3.09822 | 21762 ft | 397 kts | 185° |
| 2026-05-06 17:21 | 44.52697 | -3.10106 | 21469 ft | 395 kts | 186° |
| 2026-05-06 17:21 | 44.49926 | -3.10395 | 21186 ft | 395 kts | 185° |
| 2026-05-06 17:21 | 44.47188 | -3.10678 | 20902 ft | 394 kts | 185° |
| 2026-05-06 17:21 | 44.44501 | -3.10957 | 20628 ft | 392 kts | 185° |
| 2026-05-06 17:22 | 44.41783 | -3.11239 | 20349 ft | 390 kts | 185° |
| 2026-05-06 17:22 | 44.39046 | -3.11526 | 20055 ft | 389 kts | 185° |
| 2026-05-06 17:22 | 44.36374 | -3.11807 | 19792 ft | 389 kts | 185° |
| 2026-05-06 17:22 | 44.33692 | -3.12086 | 19522 ft | 387 kts | 185° |
| 2026-05-06 17:23 | 44.30993 | -3.12363 | 19255 ft | 386 kts | 185° |
| 2026-05-06 17:23 | 44.28330 | -3.12638 | 18987 ft | 384 kts | 185° |
| 2026-05-06 17:23 | 44.25653 | -3.12916 | 18725 ft | 384 kts | 185° |
| 2026-05-06 17:23 | 44.23001 | -3.13190 | 18464 ft | 384 kts | 184° |
| 2026-05-06 17:24 | 44.21236 | -3.13372 | 18281 ft | 382 kts | 184° |
| 2026-05-06 17:24 | 44.18598 | -3.13645 | 18087 ft | 380 kts | 184° |
| 2026-05-06 17:24 | 44.15935 | -3.13920 | 17947 ft | 379 kts | 185° |
| 2026-05-06 17:24 | 44.13326 | -3.14188 | 17809 ft | 378 kts | 185° |
| 2026-05-06 17:25 | 44.10712 | -3.14458 | 17677 ft | 378 kts | 185° |
| 2026-05-06 17:25 | 44.08084 | -3.14727 | 17542 ft | 377 kts | 185° |
| 2026-05-06 17:25 | 44.05465 | -3.14786 | 17407 ft | 376 kts | 177° |
| 2026-05-06 17:25 | 44.02863 | -3.14377 | 17273 ft | 375 kts | 170° |
| 2026-05-06 17:26 | 44.00313 | -3.13634 | 17131 ft | 375 kts | 168° |
| 2026-05-06 17:26 | 43.97767 | -3.12883 | 16857 ft | 373 kts | 169° |
| 2026-05-06 17:26 | 43.95257 | -3.12156 | 16526 ft | 371 kts | 169° |
| 2026-05-06 17:26 | 43.92702 | -3.11421 | 16238 ft | 369 kts | 169° |
| 2026-05-06 17:27 | 43.90189 | -3.10703 | 15958 ft | 367 kts | 169° |
| 2026-05-06 17:27 | 43.87694 | -3.09992 | 15678 ft | 365 kts | 169° |
| 2026-05-06 17:27 | 43.85245 | -3.09292 | 15408 ft | 364 kts | 169° |
| 2026-05-06 17:27 | 43.82764 | -3.08579 | 15138 ft | 362 kts | 169° |
| 2026-05-06 17:28 | 43.80309 | -3.07871 | 14876 ft | 361 kts | 169° |
| 2026-05-06 17:28 | 43.77855 | -3.07166 | 14597 ft | 359 kts | 169° |
| 2026-05-06 17:28 | 43.75403 | -3.06462 | 14325 ft | 357 kts | 169° |
| 2026-05-06 17:28 | 43.73046 | -3.05516 | 14069 ft | 357 kts | 158° |
| 2026-05-06 17:29 | 43.70900 | -3.03775 | 13813 ft | 358 kts | 142° |
| 2026-05-06 17:29 | 43.69141 | -3.01356 | 13512 ft | 358 kts | 128° |
| 2026-05-06 17:29 | 43.67877 | -2.98411 | 13223 ft | 357 kts | 113° |
| 2026-05-06 17:29 | 43.67185 | -2.95118 | 12927 ft | 356 kts | 98° |
| 2026-05-06 17:30 | 43.67028 | -2.91721 | 12635 ft | 355 kts | 92° |
| 2026-05-06 17:30 | 43.66851 | -2.88332 | 12349 ft | 354 kts | 96° |
| 2026-05-06 17:30 | 43.66513 | -2.84970 | 12064 ft | 352 kts | 100° |
| 2026-05-06 17:30 | 43.66012 | -2.81692 | 11784 ft | 351 kts | 104° |
| 2026-05-06 17:31 | 43.65353 | -2.78457 | 11506 ft | 349 kts | 108° |
| 2026-05-06 17:31 | 43.64545 | -2.75311 | 11232 ft | 348 kts | 112° |
| 2026-05-06 17:31 | 43.63585 | -2.72238 | 10958 ft | 347 kts | 116° |
| 2026-05-06 17:31 | 43.62486 | -2.69274 | 10685 ft | 345 kts | 120° |
| 2026-05-06 17:32 | 43.61258 | -2.66444 | 10419 ft | 344 kts | 123° |
| 2026-05-06 17:32 | 43.59893 | -2.63724 | 10143 ft | 344 kts | 127° |
| 2026-05-06 17:32 | 43.58414 | -2.61155 | 9877 ft | 338 kts | 131° |
| 2026-05-06 17:32 | 43.56853 | -2.58772 | 9588 ft | 330 kts | 135° |
| 2026-05-06 17:33 | 43.55249 | -2.56609 | 9275 ft | 313 kts | 138° |
| 2026-05-06 17:33 | 43.53651 | -2.54699 | 8988 ft | 298 kts | 142° |
| 2026-05-06 17:33 | 43.52035 | -2.52973 | 8705 ft | 292 kts | 145° |
| 2026-05-06 17:33 | 43.50381 | -2.51403 | 8433 ft | 291 kts | 148° |
| 2026-05-06 17:34 | 43.48663 | -2.49955 | 8149 ft | 288 kts | 151° |
| 2026-05-06 17:34 | 43.46904 | -2.48659 | 7872 ft | 286 kts | 154° |
| 2026-05-06 17:34 | 43.45108 | -2.47502 | 7594 ft | 285 kts | 158° |
| 2026-05-06 17:34 | 43.43269 | -2.46487 | 7318 ft | 283 kts | 161° |
| 2026-05-06 17:35 | 43.41415 | -2.45626 | 7070 ft | 281 kts | 164° |
| 2026-05-06 17:35 | 43.39523 | -2.44903 | 6968 ft | 282 kts | 167° |
| 2026-05-06 17:35 | 43.37603 | -2.44314 | 6980 ft | 283 kts | 170° |
| 2026-05-06 17:36 | 43.33704 | -2.43558 | 6984 ft | 283 kts | 176° |
| 2026-05-06 17:36 | 43.31740 | -2.43395 | 6983 ft | 283 kts | 180° |
| 2026-05-06 17:36 | 43.29774 | -2.43379 | 6981 ft | 282 kts | 183° |
| 2026-05-06 17:36 | 43.27812 | -2.43509 | 6980 ft | 282 kts | 186° |
| 2026-05-06 17:37 | 43.25867 | -2.43780 | 6952 ft | 280 kts | 189° |
| 2026-05-06 17:37 | 43.23939 | -2.44187 | 6653 ft | 279 kts | 192° |
| 2026-05-06 17:37 | 43.22069 | -2.44716 | 6321 ft | 277 kts | 195° |
| 2026-05-06 17:37 | 43.20206 | -2.45385 | 6025 ft | 274 kts | 199° |
| 2026-05-06 17:38 | 43.18491 | -2.46510 | 6003 ft | 274 kts | 219° |
| 2026-05-06 17:38 | 43.17193 | -2.48384 | 6014 ft | 270 kts | 241° |
| 2026-05-06 17:38 | 43.16508 | -2.50737 | 6002 ft | 266 kts | 262° |
| 2026-05-06 17:38 | 43.16544 | -2.53165 | 6006 ft | 248 kts | 285° |
| 2026-05-06 17:39 | 43.17020 | -2.55360 | 6011 ft | 234 kts | 293° |
| 2026-05-06 17:39 | 43.17657 | -2.57326 | 5981 ft | 219 kts | 298° |
| 2026-05-06 17:39 | 43.18333 | -2.59157 | 5743 ft | 214 kts | 299° |
| 2026-05-06 17:39 | 43.19032 | -2.61027 | 4963 ft | 228 kts | 299° |
| 2026-05-06 17:40 | 43.19760 | -2.62989 | 4475 ft | 226 kts | 299° |
| 2026-05-06 17:40 | 43.20443 | -2.64836 | 4407 ft | 212 kts | 298° |
| 2026-05-06 17:40 | 43.21103 | -2.66619 | 4371 ft | 204 kts | 298° |
| 2026-05-06 17:40 | 43.21729 | -2.68310 | 4134 ft | 196 kts | 298° |
| 2026-05-06 17:41 | 43.22333 | -2.69943 | 3857 ft | 192 kts | 298° |
| 2026-05-06 17:41 | 43.22915 | -2.71517 | 3573 ft | 179 kts | 298° |
| 2026-05-06 17:41 | 43.23469 | -2.73019 | 3327 ft | 175 kts | 298° |
| 2026-05-06 17:41 | 43.24009 | -2.74481 | 3036 ft | 166 kts | 298° |
| 2026-05-06 17:42 | 43.24504 | -2.75825 | 2810 ft | 152 kts | 299° |
| 2026-05-06 17:42 | 43.24974 | -2.77099 | 2576 ft | 149 kts | 298° |
| 2026-05-06 17:42 | 43.25442 | -2.78367 | 2346 ft | 149 kts | 299° |
| 2026-05-06 17:42 | 43.25909 | -2.79634 | 2121 ft | 149 kts | 298° |
| 2026-05-06 17:43 | 43.26375 | -2.80897 | 1882 ft | 148 kts | 298° |
| 2026-05-06 17:43 | 43.26839 | -2.82162 | 1657 ft | 148 kts | 297° |
| 2026-05-06 17:43 | 43.27314 | -2.83409 | 1448 ft | 148 kts | 298° |
| 2026-05-06 17:43 | 43.27797 | -2.84654 | 1197 ft | 148 kts | 297° |
| 2026-05-06 17:44 | 43.28272 | -2.85897 | 948 ft | 147 kts | 296° |
| 2026-05-06 17:44 | 43.28720 | -2.87157 | 734 ft | 146 kts | 295° |
| 2026-05-06 17:44 | 43.29145 | -2.88386 | 511 ft | 143 kts | 296° |
| 2026-05-06 17:44 | 43.29581 | -2.89610 | 242 ft | 142 kts | 297° |
| 2026-05-06 17:45 | 43.30020 | -2.90815 | 127 ft | 134 kts | 298° |
| 2026-05-06 17:45 | 43.30334 | -2.91667 | 125 ft | 57 kts | 296° |
| 2026-05-06 17:45 | 43.30447 | -2.91974 | 122 ft | 33 kts | 297° |
| 2026-05-06 17:45 | 43.30548 | -2.92247 | 124 ft | 26 kts | 297° |
| 2026-05-06 17:46 | 43.30622 | -2.92424 | 127 ft | 17 kts | 313° |
| 2026-05-06 17:46 | 43.30714 | -2.92488 | 128 ft | 13 kts | 340° |
| 2026-05-06 17:46 | 43.30764 | -2.92502 | 127 ft | 2 kts | 0° |
| 2026-05-06 17:46 | 43.30785 | -2.92487 | 124 ft | 4 kts | 40° |
| 2026-05-06 17:47 | 43.30793 | -2.92442 | 127 ft | 6 kts | 101° |
| 2026-05-06 17:47 | 43.30775 | -2.92377 | 126 ft | 8 kts | 112° |
| 2026-05-06 17:47 | 43.30747 | -2.92294 | 124 ft | 11 kts | 117° |
| 2026-05-06 17:47 | 43.30709 | -2.92191 | 125 ft | 13 kts | 116° |
| 2026-05-06 17:48 | 43.30660 | -2.92070 | 124 ft | 16 kts | 122° |
| 2026-05-06 17:48 | 43.30609 | -2.91924 | 126 ft | 18 kts | 114° |
| 2026-05-06 17:48 | 43.30550 | -2.91755 | 126 ft | 21 kts | 116° |
| 2026-05-06 17:48 | 43.30478 | -2.91569 | 125 ft | 23 kts | 118° |
| 2026-05-06 17:49 | 43.30403 | -2.91356 | 125 ft | 26 kts | 117° |
| 2026-05-06 17:49 | 43.30335 | -2.91173 | 125 ft | 13 kts | 116° |
| 2026-05-06 17:49 | 43.30320 | -2.91131 | 126 ft | 1 kts | 116° |
| 2026-05-06 17:49 | 43.30313 | -2.91102 | 126 ft | 6 kts | 105° |
| 2026-05-06 17:50 | 43.30325 | -2.91026 | 125 ft | 9 kts | 45° |
| 2026-05-06 17:50 | 43.30388 | -2.90975 | 125 ft | 10 kts | 33° |
| 2026-05-06 17:50 | 43.30408 | -2.90904 | 127 ft | 3 kts | 92° |
| 2026-05-06 17:50 | 43.30407 | -2.90868 | 127 ft | 5 kts | 92° |
| 2026-05-06 17:51 | 43.30406 | -2.90811 | 127 ft | 7 kts | 96° |
| 2026-05-06 17:51 | 43.30389 | -2.90742 | 126 ft | 8 kts | 103° |
| 2026-05-06 17:51 | 43.30421 | -2.90698 | 125 ft | 6 kts | 20° |
| 2026-05-06 17:51 | 43.30439 | -2.90687 | 124 ft | 2 kts | 27° |
| 2026-05-06 17:52 | 43.30442 | -2.90685 | 124 ft | 0 kts | 28° |